Time;durP1;ratioP1;P1;durP2;ratioP2;P2;SDS_P1;SDS_P2;PMS_P1;PMS_P2;Temp;Humidity;BMP_temperature;BMP_pressure;BME280_temperature;BME280_humidity;BME280_pressure;Samples;Min_cycle;Max_cycle;Signal;HPM_P1;HPM_P2
2022/01/12 00:01:12;;;;;;;;;;;3.10;80.30;;;;;;5012531;28;20008;-81
2022/01/12 00:03:38;;;;;;;;;;;3.10;80.50;;;;;;5018030;28;19917;-82
2022/01/12 00:06:03;;;;;;;;;;;3.10;80.30;;;;;;5031242;28;20313;-82
2022/01/12 00:08:31;;;;;;;;;;;3.00;80.30;;;;;;5032299;28;19921;-82
2022/01/12 00:10:57;;;;;;;;;;;2.90;80.40;;;;;;5022048;28;19976;-82
2022/01/12 00:13:23;;;;;;;;;;;2.90;80.40;;;;;;5028271;28;19924;-82
2022/01/12 00:15:49;;;;;;;;;;;2.90;80.20;;;;;;5016688;28;19920;-82
2022/01/12 00:18:14;;;;;;;;;;;3.00;80.40;;;;;;5013314;28;20302;-82
2022/01/12 00:20:40;;;;;;;;;;;3.00;79.60;;;;;;5034029;28;19921;-82
2022/01/12 00:23:05;;;;;;;;;;;3.00;79.40;;;;;;5016482;28;20384;-82
2022/01/12 00:25:44;;;;;;;;;;;3.10;79.20;;;;;;4999447;28;19910;-82
2022/01/12 00:33:38;;;;;;;;;;;3.30;78.80;;;;;;5028482;28;19937;-82
2022/01/12 00:36:03;;;;;;;;;;;3.20;78.00;;;;;;5014426;28;19917;-82
2022/01/12 00:38:29;;;;;;;;;;;3.20;78.30;;;;;;5004209;28;19924;-82
2022/01/12 00:40:55;;;;;;;;;;;3.20;78.40;;;;;;5008961;28;19913;-81
2022/01/12 00:43:22;;;;;;;;;;;3.30;78.90;;;;;;5021124;28;20250;-82
2022/01/12 00:45:48;;;;;;;;;;;3.40;78.70;;;;;;5017850;28;20009;-82
2022/01/12 00:48:14;;;;;;;;;;;3.40;79.00;;;;;;5013858;28;20206;-83
2022/01/12 00:50:40;;;;;;;;;;;3.30;79.20;;;;;;5030612;28;20057;-82
2022/01/12 00:53:06;;;;;;;;;;;3.40;79.20;;;;;;5017026;28;19951;-82
2022/01/12 00:55:31;;;;;;;;;;;3.40;79.10;;;;;;5005677;28;20489;-83
2022/01/12 00:57:58;;;;;;;;;;;3.50;78.30;;;;;;5017115;28;19982;-81
2022/01/12 01:00:24;;;;;;;;;;;3.50;78.60;;;;;;5010718;28;19914;-82
2022/01/12 01:02:49;;;;;;;;;;;3.50;78.60;;;;;;5017758;28;19913;-82
2022/01/12 01:05:19;;;;;;;;;;;3.60;78.40;;;;;;5016663;28;19916;-82
2022/01/12 01:07:45;;;;;;;;;;;3.60;78.00;;;;;;5019090;28;19913;-82
2022/01/12 01:10:14;;;;;;;;;;;3.60;77.40;;;;;;5032310;28;19921;-81
2022/01/12 01:12:40;;;;;;;;;;;3.60;76.90;;;;;;5020230;28;19932;-83
2022/01/12 01:15:07;;;;;;;;;;;3.60;77.00;;;;;;5034945;28;19918;-83
2022/01/12 01:25:36;;;;;;;;;;;3.70;78.10;;;;;;5033439;28;19925;-82
2022/01/12 01:28:02;;;;;;;;;;;3.80;78.10;;;;;;5011184;28;20278;-81
2022/01/12 01:30:28;;;;;;;;;;;3.80;78.00;;;;;;5024639;28;19914;-81
2022/01/12 01:32:56;;;;;;;;;;;3.90;77.50;;;;;;5013843;28;20419;-82
2022/01/12 01:35:26;;;;;;;;;;;3.90;77.30;;;;;;4999541;28;20362;-82
2022/01/12 01:37:51;;;;;;;;;;;3.90;77.20;;;;;;5018915;28;19928;-82
2022/01/12 01:40:17;;;;;;;;;;;4.00;77.30;;;;;;5029009;28;19928;-83
2022/01/12 01:53:30;;;;;;;;;;;4.10;76.40;;;;;;5023685;28;19919;-80
2022/01/12 01:55:55;;;;;;;;;;;4.00;76.70;;;;;;5013174;28;19992;-81
2022/01/12 01:58:21;;;;;;;;;;;4.00;76.80;;;;;;5022793;28;19917;-81
2022/01/12 02:00:46;;;;;;;;;;;4.00;76.50;;;;;;5014616;28;19959;-81
2022/01/12 02:03:12;;;;;;;;;;;4.10;76.80;;;;;;5016172;28;19921;-82
2022/01/12 02:05:38;;;;;;;;;;;4.10;75.90;;;;;;5013962;28;19966;-81
2022/01/12 02:08:04;;;;;;;;;;;4.10;76.80;;;;;;5015351;28;20339;-81
2022/01/12 02:10:29;;;;;;;;;;;4.20;76.20;;;;;;5013887;28;20007;-81
2022/01/12 02:12:54;;;;;;;;;;;4.20;76.90;;;;;;5008609;28;19945;-81
2022/01/12 02:15:22;;;;;;;;;;;4.20;77.20;;;;;;5015189;28;19917;-81
2022/01/12 02:18:07;;;;;;;;;;;4.20;76.00;;;;;;5026224;28;19999;-81
2022/01/12 02:37:16;;;;;;;;;;;4.20;75.00;;;;;;5032961;28;19936;-81
2022/01/12 02:39:55;;;;;;;;;;;4.00;75.50;;;;;;5012438;28;19921;-81
2022/01/12 02:42:21;;;;;;;;;;;3.90;76.50;;;;;;5004710;28;19920;-81
2022/01/12 02:55:44;;;;;;;;;;;3.90;76.00;;;;;;5026824;28;19959;-82
2022/01/12 02:58:09;;;;;;;;;;;3.90;75.90;;;;;;5016313;28;19917;-80
2022/01/12 03:03:21;;;;;;;;;;;3.90;76.00;;;;;;5018040;28;19933;-81
2022/01/12 03:05:56;;;;;;;;;;;4.00;76.80;;;;;;5011320;28;19961;-82
2022/01/12 03:08:24;;;;;;;;;;;4.10;76.60;;;;;;5014913;28;19913;-81
2022/01/12 03:10:49;;;;;;;;;;;4.10;76.10;;;;;;5028862;28;19913;-80
2022/01/12 03:13:15;;;;;;;;;;;4.10;75.90;;;;;;5040656;28;19909;-82
2022/01/12 03:15:41;;;;;;;;;;;4.10;75.60;;;;;;5039768;28;19920;-81
2022/01/12 03:18:07;;;;;;;;;;;4.10;76.50;;;;;;5025712;28;19917;-81
2022/01/12 03:20:33;;;;;;;;;;;4.20;75.70;;;;;;5015286;28;19968;-80
2022/01/12 03:22:58;;;;;;;;;;;4.20;75.50;;;;;;5007467;28;19913;-80
2022/01/12 03:25:24;;;;;;;;;;;4.10;75.70;;;;;;5018050;28;19928;-81
2022/01/12 03:27:50;;;;;;;;;;;4.30;75.70;;;;;;5024463;28;19917;-80
2022/01/12 03:30:16;;;;;;;;;;;4.30;75.80;;;;;;5036424;28;19917;-80
2022/01/12 03:32:47;;;;;;;;;;;4.30;75.80;;;;;;5025147;28;20348;-81
2022/01/12 03:35:35;;;;;;;;;;;4.30;76.00;;;;;;5034494;28;19923;-81
2022/01/12 03:40:42;;;;;;;;;;;4.40;75.50;;;;;;5030963;28;19940;-81
2022/01/12 03:43:08;;;;;;;;;;;4.50;75.80;;;;;;5020523;28;19913;-81
2022/01/12 03:45:33;;;;;;;;;;;4.60;75.20;;;;;;5002724;28;19920;-81
2022/01/12 03:47:59;;;;;;;;;;;4.60;75.40;;;;;;5025756;28;19936;-81
2022/01/12 03:50:24;;;;;;;;;;;4.60;75.60;;;;;;5010683;28;19996;-81
2022/01/12 03:52:50;;;;;;;;;;;4.60;75.40;;;;;;5028816;28;19923;-80
2022/01/12 03:55:15;;;;;;;;;;;4.70;74.50;;;;;;5025022;28;19916;-81
2022/01/12 03:57:40;;;;;;;;;;;4.70;75.20;;;;;;5023465;28;20212;-80
2022/01/12 04:00:06;;;;;;;;;;;4.70;74.50;;;;;;5018298;28;19992;-81
2022/01/12 04:02:33;;;;;;;;;;;4.60;74.80;;;;;;5010649;28;19936;-81
2022/01/12 04:10:14;;;;;;;;;;;4.60;74.60;;;;;;5024687;28;19925;-80
2022/01/12 04:12:40;;;;;;;;;;;4.50;75.40;;;;;;5028132;28;19914;-81
2022/01/12 04:15:05;;;;;;;;;;;4.50;75.60;;;;;;5010286;28;19956;-81
2022/01/12 04:17:31;;;;;;;;;;;4.40;75.90;;;;;;5018285;28;19913;-81
2022/01/12 04:19:57;;;;;;;;;;;4.40;75.70;;;;;;4997146;28;19953;-80
2022/01/12 04:25:07;;;;;;;;;;;4.30;76.00;;;;;;5024085;28;19931;-80
2022/01/12 04:27:32;;;;;;;;;;;4.30;75.80;;;;;;5008606;28;19973;-80
2022/01/12 04:29:58;;;;;;;;;;;4.30;76.20;;;;;;5017039;28;20463;-80
2022/01/12 04:32:25;;;;;;;;;;;4.30;76.60;;;;;;5009999;28;19913;-82
2022/01/12 04:34:50;;;;;;;;;;;4.30;76.60;;;;;;5026405;28;19914;-82
2022/01/12 04:37:16;;;;;;;;;;;4.30;75.70;;;;;;5034641;28;20495;-82
2022/01/12 04:39:41;;;;;;;;;;;4.20;76.40;;;;;;5029121;28;19949;-81
2022/01/12 04:42:07;;;;;;;;;;;4.30;76.70;;;;;;4999927;28;19956;-81
2022/01/12 04:44:35;;;;;;;;;;;4.30;76.80;;;;;;5016964;28;19939;-81
2022/01/12 04:47:07;;;;;;;;;;;4.40;76.20;;;;;;5017997;28;20028;-79
2022/01/12 04:52:10;;;;;;;;;;;4.50;75.90;;;;;;5035858;28;19912;-81
2022/01/12 04:54:36;;;;;;;;;;;4.50;75.80;;;;;;5019100;28;19921;-81
2022/01/12 04:57:01;;;;;;;;;;;4.40;75.90;;;;;;5018014;28;19921;-79
2022/01/12 04:59:28;;;;;;;;;;;4.30;76.70;;;;;;5017955;28;19980;-80
2022/01/12 05:01:58;;;;;;;;;;;4.30;76.50;;;;;;5018809;28;19920;-80
2022/01/12 05:07:23;;;;;;;;;;;4.20;76.60;;;;;;5033652;28;19971;-81
2022/01/12 05:15:15;;;;;;;;;;;4.30;76.90;;;;;;5035159;28;19917;-80
2022/01/12 05:17:41;;;;;;;;;;;4.50;76.50;;;;;;5022122;28;19913;-78
2022/01/12 05:20:06;;;;;;;;;;;4.50;76.40;;;;;;5004533;28;19924;-80
2022/01/12 05:22:32;;;;;;;;;;;4.50;75.90;;;;;;5008512;28;19967;-80
2022/01/12 05:24:57;;;;;;;;;;;4.50;76.60;;;;;;5005434;28;20012;-79
2022/01/12 05:27:23;;;;;;;;;;;4.60;76.10;;;;;;5018502;28;19959;-79
2022/01/12 05:29:49;;;;;;;;;;;4.50;76.10;;;;;;5019318;28;19935;-78
2022/01/12 05:32:14;;;;;;;;;;;4.50;76.20;;;;;;5030052;28;20396;-80
2022/01/12 05:34:41;;;;;;;;;;;4.50;76.60;;;;;;5019036;28;20285;-79
2022/01/12 05:37:06;;;;;;;;;;;4.50;76.20;;;;;;5033243;28;19986;-81
2022/01/12 05:39:32;;;;;;;;;;;4.50;75.80;;;;;;5010317;28;19914;-79
2022/01/12 05:41:57;;;;;;;;;;;4.50;75.90;;;;;;5033123;28;19913;-79
2022/01/12 05:44:23;;;;;;;;;;;4.50;76.10;;;;;;5013964;28;19917;-79
2022/01/12 05:46:49;;;;;;;;;;;4.50;76.30;;;;;;5022988;28;20005;-81
2022/01/12 05:49:34;;;;;;;;;;;4.60;76.30;;;;;;5005517;28;20091;-79
2022/01/12 05:52:00;;;;;;;;;;;4.60;76.00;;;;;;5030040;28;19917;-81
2022/01/12 05:54:25;;;;;;;;;;;4.60;75.60;;;;;;5015060;28;19916;-83
2022/01/12 05:56:52;;;;;;;;;;;4.60;75.20;;;;;;5019857;28;19914;-80
2022/01/12 05:59:17;;;;;;;;;;;4.60;75.20;;;;;;5026169;28;19917;-80
2022/01/12 06:01:43;;;;;;;;;;;4.50;75.50;;;;;;5015813;28;19918;-80
2022/01/12 06:04:08;;;;;;;;;;;4.60;75.20;;;;;;5002254;28;19968;-78
2022/01/12 06:06:34;;;;;;;;;;;4.50;74.90;;;;;;4994940;28;19909;-80
2022/01/12 06:08:59;;;;;;;;;;;4.40;74.80;;;;;;5018296;28;21952;-78
2022/01/12 06:11:25;;;;;;;;;;;4.40;75.90;;;;;;5031685;28;19920;-79
2022/01/12 06:13:52;;;;;;;;;;;4.40;75.50;;;;;;5019041;28;19913;-79
2022/01/12 06:16:18;;;;;;;;;;;4.30;75.90;;;;;;5013092;28;20293;-78
2022/01/12 06:18:44;;;;;;;;;;;4.30;75.80;;;;;;5011152;28;19913;-78
2022/01/12 06:21:10;;;;;;;;;;;4.30;75.80;;;;;;5015378;28;19917;-78
2022/01/12 06:23:35;;;;;;;;;;;4.40;75.50;;;;;;5015478;28;20373;-79
2022/01/12 06:26:01;;;;;;;;;;;4.30;76.00;;;;;;5030933;28;20011;-79
2022/01/12 06:31:10;;;;;;;;;;;4.50;75.50;;;;;;5024119;28;20404;-78
2022/01/12 06:33:36;;;;;;;;;;;4.50;75.30;;;;;;5012969;28;19983;-79
2022/01/12 06:36:02;;;;;;;;;;;4.50;75.20;;;;;;5032063;28;20007;-79
2022/01/12 06:38:28;;;;;;;;;;;4.60;75.40;;;;;;5012980;28;19925;-80
2022/01/12 06:40:53;;;;;;;;;;;4.60;75.70;;;;;;5010995;28;19970;-80
2022/01/12 06:43:19;;;;;;;;;;;4.60;76.00;;;;;;5015656;28;19921;-80
2022/01/12 06:45:44;;;;;;;;;;;4.60;76.10;;;;;;5013586;28;19949;-82
2022/01/12 06:48:10;;;;;;;;;;;4.60;76.20;;;;;;5016431;28;19976;-82
2022/01/12 06:50:35;;;;;;;;;;;4.80;74.40;;;;;;5043373;28;20363;-83
2022/01/12 06:53:01;;;;;;;;;;;4.90;74.10;;;;;;5042192;28;19916;-82
2022/01/12 06:55:26;;;;;;;;;;;4.80;73.90;;;;;;5026072;28;20392;-82
2022/01/12 06:57:52;;;;;;;;;;;4.80;73.70;;;;;;5021757;28;20003;-84
2022/01/12 07:00:17;;;;;;;;;;;4.70;73.60;;;;;;5018549;28;19924;-83
2022/01/12 07:02:43;;;;;;;;;;;4.60;73.60;;;;;;5018926;28;19912;-83
2022/01/12 07:05:08;;;;;;;;;;;4.60;74.30;;;;;;5016106;28;19925;-83
2022/01/12 07:07:34;;;;;;;;;;;4.60;74.70;;;;;;5002376;28;19913;-84
2022/01/12 07:10:00;;;;;;;;;;;4.60;74.00;;;;;;5001297;28;19913;-83
2022/01/12 07:12:26;;;;;;;;;;;4.60;75.30;;;;;;5037749;28;19913;-84
2022/01/12 07:14:51;;;;;;;;;;;4.60;75.00;;;;;;5028546;28;19968;-84
2022/01/12 07:17:17;;;;;;;;;;;4.60;75.30;;;;;;5030417;28;19914;-83
2022/01/12 07:19:42;;;;;;;;;;;4.60;75.20;;;;;;5030652;28;19913;-84
2022/01/12 07:22:08;;;;;;;;;;;4.60;75.20;;;;;;5013169;28;19939;-84
2022/01/12 07:24:33;;;;;;;;;;;4.60;74.50;;;;;;5017071;28;19920;-84
2022/01/12 07:26:59;;;;;;;;;;;4.70;75.00;;;;;;5017283;28;19920;-81
2022/01/12 07:29:24;;;;;;;;;;;4.60;74.50;;;;;;5015254;28;19918;-83
2022/01/12 07:31:50;;;;;;;;;;;4.60;74.40;;;;;;5003253;28;19910;-82
2022/01/12 07:34:15;;;;;;;;;;;4.60;74.80;;;;;;5013285;28;19917;-82
2022/01/12 07:36:42;;;;;;;;;;;4.70;74.30;;;;;;5016248;28;19956;-83
2022/01/12 07:39:07;;;;;;;;;;;4.70;75.00;;;;;;4997526;28;19921;-83
2022/01/12 07:41:33;;;;;;;;;;;4.70;75.00;;;;;;5013467;28;19909;-83
2022/01/12 07:43:58;;;;;;;;;;;4.80;74.60;;;;;;5009519;28;20361;-82
2022/01/12 07:46:24;;;;;;;;;;;4.80;74.50;;;;;;5016080;28;19949;-83
2022/01/12 07:48:49;;;;;;;;;;;4.80;73.30;;;;;;5031077;28;20575;-83
2022/01/12 07:51:15;;;;;;;;;;;4.80;73.90;;;;;;5016922;28;19917;-82
2022/01/12 07:53:40;;;;;;;;;;;4.80;73.70;;;;;;5029121;28;19932;-82
2022/01/12 07:56:06;;;;;;;;;;;4.80;73.70;;;;;;5027990;28;19921;-82
2022/01/12 07:58:31;;;;;;;;;;;4.80;73.80;;;;;;5021538;28;19921;-82
2022/01/12 08:00:57;;;;;;;;;;;4.80;73.40;;;;;;5008806;28;19940;-82
2022/01/12 08:03:23;;;;;;;;;;;4.80;73.40;;;;;;5038163;28;19924;-82
2022/01/12 08:05:50;;;;;;;;;;;4.70;74.60;;;;;;5014905;28;19910;-83
2022/01/12 08:08:15;;;;;;;;;;;4.70;74.50;;;;;;5013624;28;19924;-82
2022/01/12 08:10:41;;;;;;;;;;;4.70;74.70;;;;;;5017325;28;20257;-83
2022/01/12 08:13:06;;;;;;;;;;;4.70;74.90;;;;;;5016036;28;19924;-83
2022/01/12 08:15:32;;;;;;;;;;;4.70;75.10;;;;;;5011426;28;20393;-82
2022/01/12 08:17:57;;;;;;;;;;;4.60;76.10;;;;;;5027082;28;20812;-82
2022/01/12 08:20:26;;;;;;;;;;;4.60;76.00;;;;;;5021384;28;19909;-81
2022/01/12 08:22:52;;;;;;;;;;;4.60;75.80;;;;;;5011843;28;19917;-82
2022/01/12 08:25:18;;;;;;;;;;;4.70;75.70;;;;;;5010666;28;20015;-83
2022/01/12 08:27:44;;;;;;;;;;;4.80;76.10;;;;;;5011965;28;20377;-83
2022/01/12 08:30:16;;;;;;;;;;;4.70;76.20;;;;;;5033863;28;19913;-83
2022/01/12 08:32:42;;;;;;;;;;;4.80;75.90;;;;;;5024190;28;20346;-83
2022/01/12 08:35:08;;;;;;;;;;;4.70;75.50;;;;;;5010984;28;19953;-82
2022/01/12 08:37:33;;;;;;;;;;;4.80;75.80;;;;;;5013308;28;19917;-81
2022/01/12 08:39:59;;;;;;;;;;;4.80;76.10;;;;;;5017089;28;19917;-82
2022/01/12 08:42:28;;;;;;;;;;;4.80;76.10;;;;;;5016102;28;19921;-83
2022/01/12 08:44:53;;;;;;;;;;;4.80;76.10;;;;;;5013743;28;19935;-83
2022/01/12 08:47:19;;;;;;;;;;;4.80;76.30;;;;;;5010759;28;19922;-83
2022/01/12 08:49:44;;;;;;;;;;;4.80;76.40;;;;;;5013201;28;19924;-82
2022/01/12 08:55:00;;;;;;;;;;;4.90;76.30;;;;;;5034985;28;19917;-83
2022/01/12 08:57:29;;;;;;;;;;;4.80;76.20;;;;;;5018194;28;19952;-82
2022/01/12 08:59:55;;;;;;;;;;;4.80;76.40;;;;;;5009743;28;19913;-81
2022/01/12 09:02:21;;;;;;;;;;;4.90;77.00;;;;;;5031547;28;19923;-82
2022/01/12 09:04:46;;;;;;;;;;;4.90;77.00;;;;;;5031002;28;19917;-83
2022/01/12 09:07:12;;;;;;;;;;;4.90;77.00;;;;;;5014098;28;19922;-83
2022/01/12 09:09:37;;;;;;;;;;;4.90;77.30;;;;;;5006297;28;19919;-82
2022/01/12 09:12:03;;;;;;;;;;;4.80;76.90;;;;;;5035996;28;19909;-82
2022/01/12 09:14:29;;;;;;;;;;;4.90;77.20;;;;;;5029275;28;19919;-83
2022/01/12 09:16:55;;;;;;;;;;;4.80;77.00;;;;;;5013870;28;19996;-82
2022/01/12 09:19:24;;;;;;;;;;;4.90;77.10;;;;;;5024080;28;19993;-82
2022/01/12 09:21:49;;;;;;;;;;;4.80;76.90;;;;;;5010593;28;19920;-81
2022/01/12 09:24:15;;;;;;;;;;;4.90;77.30;;;;;;5021851;28;19921;-82
2022/01/12 09:26:41;;;;;;;;;;;5.00;77.10;;;;;;5018776;28;19914;-82
2022/01/12 09:29:06;;;;;;;;;;;5.10;76.60;;;;;;4996330;28;19913;-83
2022/01/12 09:31:32;;;;;;;;;;;5.00;76.70;;;;;;5007745;28;19913;-82
2022/01/12 09:33:57;;;;;;;;;;;5.10;76.80;;;;;;5016346;28;19923;-83
2022/01/12 09:36:23;;;;;;;;;;;5.10;76.10;;;;;;5016090;28;19921;-83
2022/01/12 09:38:48;;;;;;;;;;;5.00;76.30;;;;;;5023816;28;19955;-81
2022/01/12 09:41:14;;;;;;;;;;;5.10;76.70;;;;;;4996764;28;19917;-83
2022/01/12 09:43:42;;;;;;;;;;;5.00;76.70;;;;;;5015196;28;19956;-83
2022/01/12 09:46:08;;;;;;;;;;;5.10;76.20;;;;;;5007091;28;20488;-82
2022/01/12 09:48:34;;;;;;;;;;;5.10;77.00;;;;;;5004154;28;20378;-82
2022/01/12 09:51:03;;;;;;;;;;;5.10;77.50;;;;;;5016130;28;20289;-82
2022/01/12 09:53:29;;;;;;;;;;;5.30;77.20;;;;;;5024707;28;19913;-82
2022/01/12 09:55:55;;;;;;;;;;;5.30;76.90;;;;;;5015684;28;19959;-82
2022/01/12 09:58:20;;;;;;;;;;;5.30;76.70;;;;;;5031395;28;20202;-83
2022/01/12 10:00:59;;;;;;;;;;;5.40;77.20;;;;;;5011159;28;19948;-82
2022/01/12 10:03:25;;;;;;;;;;;5.30;77.70;;;;;;5008473;28;19928;-82
2022/01/12 10:05:50;;;;;;;;;;;5.30;77.60;;;;;;5037572;28;19920;-83
2022/01/12 10:08:16;;;;;;;;;;;5.30;77.70;;;;;;5027242;28;19932;-82
2022/01/12 10:10:43;;;;;;;;;;;5.40;77.90;;;;;;5051233;28;19913;-82
2022/01/12 10:13:23;;;;;;;;;;;5.40;77.80;;;;;;5025259;28;19920;-82
2022/01/12 10:15:50;;;;;;;;;;;5.50;77.40;;;;;;5015578;28;19953;-82
2022/01/12 10:18:15;;;;;;;;;;;5.50;77.20;;;;;;5008788;28;19921;-81
2022/01/12 10:20:45;;;;;;;;;;;5.50;76.60;;;;;;5013159;28;19913;-83
2022/01/12 10:23:13;;;;;;;;;;;5.50;77.30;;;;;;5026024;28;19917;-82
2022/01/12 10:25:41;;;;;;;;;;;5.40;76.90;;;;;;4999074;28;19913;-84
2022/01/12 10:28:25;;;;;;;;;;;5.50;77.00;;;;;;5018270;28;20170;-82
2022/01/12 10:30:58;;;;;;;;;;;5.60;76.90;;;;;;5017406;28;19920;-82
2022/01/12 10:33:27;;;;;;;;;;;5.50;77.10;;;;;;5026923;28;19920;-83
2022/01/12 10:35:55;;;;;;;;;;;5.50;77.20;;;;;;5007598;28;19936;-82
2022/01/12 10:38:22;;;;;;;;;;;5.60;77.30;;;;;;5027108;28;19967;-82
2022/01/12 10:40:51;;;;;;;;;;;5.60;76.50;;;;;;5017885;28;19917;-83
2022/01/12 10:43:34;;;;;;;;;;;5.60;76.60;;;;;;5012320;28;20040;-82
2022/01/12 10:46:01;;;;;;;;;;;5.60;77.00;;;;;;5005168;28;19910;-83
2022/01/12 10:48:46;;;;;;;;;;;5.60;77.30;;;;;;5014737;28;19959;-83
2022/01/12 10:51:22;;;;;;;;;;;5.60;77.10;;;;;;5021645;28;19971;-82
2022/01/12 10:53:48;;;;;;;;;;;5.60;77.40;;;;;;5029519;28;20140;-82
2022/01/12 10:56:21;;;;;;;;;;;5.40;78.20;;;;;;5007806;28;19967;-82
2022/01/12 10:58:47;;;;;;;;;;;5.40;78.30;;;;;;5032488;28;19921;-83
2022/01/12 11:01:14;;;;;;;;;;;5.50;78.40;;;;;;5043178;28;19914;-82
2022/01/12 11:03:39;;;;;;;;;;;5.60;77.70;;;;;;5029563;28;19936;-81
2022/01/12 11:06:08;;;;;;;;;;;5.50;78.30;;;;;;5012712;28;19973;-81
2022/01/12 11:08:35;;;;;;;;;;;5.60;78.00;;;;;;5014866;28;19909;-83
2022/01/12 11:11:00;;;;;;;;;;;5.50;78.50;;;;;;5015682;28;19923;-81
2022/01/12 11:13:27;;;;;;;;;;;5.40;79.40;;;;;;5016170;28;19913;-80
2022/01/12 11:15:53;;;;;;;;;;;5.40;79.30;;;;;;5011632;28;19921;-79
2022/01/12 11:18:28;;;;;;;;;;;5.30;79.30;;;;;;5021027;28;20334;-80
2022/01/12 11:20:58;;;;;;;;;;;5.30;80.00;;;;;;5011893;28;20324;-80
2022/01/12 11:23:32;;;;;;;;;;;5.40;79.30;;;;;;5014505;28;19909;-80
2022/01/12 11:25:57;;;;;;;;;;;5.30;79.60;;;;;;5022117;28;20011;-81
2022/01/12 11:28:24;;;;;;;;;;;5.40;79.70;;;;;;5022881;28;19940;-79
2022/01/12 11:30:55;;;;;;;;;;;5.50;79.70;;;;;;5005602;28;19920;-78
2022/01/12 11:33:22;;;;;;;;;;;5.50;79.80;;;;;;5003351;28;20281;-80
2022/01/12 11:35:49;;;;;;;;;;;5.70;79.00;;;;;;5011308;28;19924;-80
2022/01/12 11:38:22;;;;;;;;;;;5.60;78.90;;;;;;5011935;28;19933;-80
2022/01/12 11:40:50;;;;;;;;;;;5.60;79.00;;;;;;5015574;28;19974;-80
2022/01/12 11:43:19;;;;;;;;;;;5.60;79.70;;;;;;5004985;28;20007;-81
2022/01/12 11:45:45;;;;;;;;;;;5.60;79.40;;;;;;5007606;28;20293;-82
2022/01/12 11:48:11;;;;;;;;;;;5.60;79.00;;;;;;5016801;28;19916;-81
2022/01/12 11:50:36;;;;;;;;;;;5.60;79.50;;;;;;5013085;28;19917;-81
2022/01/12 11:53:02;;;;;;;;;;;5.60;79.60;;;;;;5019508;28;19939;-79
2022/01/12 11:55:34;;;;;;;;;;;5.60;79.30;;;;;;5012705;28;19921;-79
2022/01/12 11:58:03;;;;;;;;;;;5.50;80.00;;;;;;5016173;28;20366;-80
2022/01/12 12:00:30;;;;;;;;;;;5.60;79.90;;;;;;4999936;28;19993;-81
2022/01/12 12:02:56;;;;;;;;;;;5.60;80.00;;;;;;5004217;28;19953;-80
2022/01/12 12:05:23;;;;;;;;;;;5.60;79.90;;;;;;5012056;28;20420;-79
2022/01/12 12:07:55;;;;;;;;;;;5.60;80.40;;;;;;5009241;28;19929;-80
2022/01/12 12:10:22;;;;;;;;;;;5.60;79.90;;;;;;5012408;28;19920;-81
2022/01/12 12:12:49;;;;;;;;;;;5.30;80.50;;;;;;5004992;28;19913;-81
2022/01/12 12:15:15;;;;;;;;;;;5.30;81.10;;;;;;5017786;28;20016;-81
2022/01/12 12:17:41;;;;;;;;;;;5.40;81.50;;;;;;4999280;28;19945;-81
2022/01/12 12:20:08;;;;;;;;;;;5.50;81.10;;;;;;5024249;28;19932;-81
2022/01/12 12:22:37;;;;;;;;;;;5.40;81.70;;;;;;5019177;28;19921;-83
2022/01/12 12:25:22;;;;;;;;;;;5.50;82.00;;;;;;5028672;28;19917;-81
2022/01/12 12:27:57;;;;;;;;;;;5.50;82.20;;;;;;5014097;28;19917;-80
2022/01/12 12:30:24;;;;;;;;;;;5.50;82.20;;;;;;5006267;28;19952;-81
2022/01/12 12:32:57;;;;;;;;;;;5.50;82.00;;;;;;5020956;28;19917;-81
2022/01/12 12:35:22;;;;;;;;;;;5.60;82.50;;;;;;5019017;28;20397;-81
2022/01/12 12:37:52;;;;;;;;;;;5.60;82.40;;;;;;5033485;28;19917;-82
2022/01/12 12:40:17;;;;;;;;;;;5.60;82.20;;;;;;5008264;28;20354;-83
2022/01/12 12:42:43;;;;;;;;;;;5.70;82.30;;;;;;4999023;28;20007;-83
2022/01/12 12:45:08;;;;;;;;;;;5.70;82.60;;;;;;5006981;28;19968;-82
2022/01/12 12:47:34;;;;;;;;;;;5.60;82.60;;;;;;5016360;28;20051;-82
2022/01/12 12:50:02;;;;;;;;;;;5.60;82.50;;;;;;4991491;28;20008;-82
2022/01/12 12:52:32;;;;;;;;;;;5.70;82.50;;;;;;5012840;28;19996;-81
2022/01/12 12:54:58;;;;;;;;;;;5.70;82.60;;;;;;5002271;28;20307;-81
2022/01/12 12:57:24;;;;;;;;;;;5.80;82.70;;;;;;5008857;28;19939;-81
2022/01/12 13:00:11;;;;;;;;;;;5.80;82.40;;;;;;5015777;28;19914;-83
2022/01/12 13:02:44;;;;;;;;;;;5.80;82.40;;;;;;5019255;28;19921;-81
2022/01/12 13:05:33;;;;;;;;;;;5.80;81.70;;;;;;5011259;28;19921;-82
2022/01/12 13:07:58;;;;;;;;;;;5.80;82.00;;;;;;4993348;28;19993;-83
2022/01/12 13:10:25;;;;;;;;;;;5.80;82.50;;;;;;4992708;28;19914;-82
2022/01/12 13:12:52;;;;;;;;;;;5.90;82.20;;;;;;5009936;28;19913;-82
2022/01/12 13:15:19;;;;;;;;;;;5.80;82.30;;;;;;4992657;28;19960;-82
2022/01/12 13:17:44;;;;;;;;;;;5.90;82.30;;;;;;5014111;28;19956;-82
2022/01/12 13:22:46;;;;;;;;;;;5.80;82.10;;;;;;5024266;28;20003;-82
2022/01/12 13:25:15;;;;;;;;;;;5.90;81.70;;;;;;5008715;28;20554;-80
2022/01/12 13:27:40;;;;;;;;;;;5.90;82.20;;;;;;5011079;28;20031;-81
2022/01/12 13:30:07;;;;;;;;;;;5.90;82.40;;;;;;5000370;28;19957;-82
2022/01/12 13:32:33;;;;;;;;;;;5.90;82.30;;;;;;5010097;28;20451;-82
2022/01/12 13:35:09;;;;;;;;;;;6.00;82.40;;;;;;5025043;28;19968;-81
2022/01/12 13:37:34;;;;;;;;;;;6.10;81.20;;;;;;5003768;28;20020;-82
2022/01/12 13:40:09;;;;;;;;;;;5.90;81.70;;;;;;5014163;28;20019;-83
2022/01/12 13:42:50;;;;;;;;;;;5.90;81.90;;;;;;5013574;28;20007;-83
2022/01/12 13:45:16;;;;;;;;;;;5.90;81.70;;;;;;5015440;28;19972;-83
2022/01/12 13:47:48;;;;;;;;;;;5.70;82.20;;;;;;5015372;28;19917;-83
2022/01/12 13:50:14;;;;;;;;;;;5.80;82.10;;;;;;5032966;28;19913;-83
2022/01/12 13:52:41;;;;;;;;;;;5.80;82.10;;;;;;5010142;28;19913;-83
2022/01/12 13:55:10;;;;;;;;;;;5.90;81.60;;;;;;5003684;28;19977;-83
2022/01/12 13:57:36;;;;;;;;;;;5.80;82.10;;;;;;4999376;28;19920;-85
2022/01/12 14:00:03;;;;;;;;;;;5.80;82.10;;;;;;5015305;28;20330;-84
2022/01/12 14:02:30;;;;;;;;;;;5.80;82.10;;;;;;5027095;28;19927;-84
2022/01/12 14:05:06;;;;;;;;;;;5.80;82.00;;;;;;5014822;28;19913;-85
2022/01/12 14:07:37;;;;;;;;;;;5.70;82.50;;;;;;5018851;28;19913;-84
2022/01/12 14:10:04;;;;;;;;;;;5.60;82.50;;;;;;5012761;28;20377;-84
2022/01/12 14:12:29;;;;;;;;;;;5.60;81.90;;;;;;5012712;28;20039;-85
2022/01/12 14:15:01;;;;;;;;;;;5.60;81.80;;;;;;5013360;28;20382;-83
2022/01/12 14:17:31;;;;;;;;;;;5.60;81.50;;;;;;5009905;28;20388;-85
2022/01/12 14:19:56;;;;;;;;;;;5.40;81.60;;;;;;5035203;28;20036;-82
2022/01/12 14:22:22;;;;;;;;;;;5.40;82.10;;;;;;5018264;28;20031;-84
2022/01/12 14:25:01;;;;;;;;;;;5.60;81.90;;;;;;5018131;28;19963;-84
2022/01/12 14:27:37;;;;;;;;;;;5.40;82.10;;;;;;5021473;28;19914;-82
2022/01/12 14:30:04;;;;;;;;;;;5.50;82.20;;;;;;5021148;28;20140;-84
2022/01/12 14:32:35;;;;;;;;;;;5.60;81.90;;;;;;5025412;28;19967;-82
2022/01/12 14:35:01;;;;;;;;;;;5.60;82.00;;;;;;5016993;28;20005;-84
2022/01/12 14:37:26;;;;;;;;;;;5.60;81.40;;;;;;4999979;28;20547;-83
2022/01/12 14:39:51;;;;;;;;;;;5.70;81.10;;;;;;5026302;28;19920;-82
2022/01/12 14:42:17;;;;;;;;;;;5.70;81.00;;;;;;5015940;28;20044;-81
2022/01/12 14:44:43;;;;;;;;;;;5.60;81.60;;;;;;5013677;28;19918;-82
2022/01/12 14:47:08;;;;;;;;;;;5.50;82.10;;;;;;5024465;28;19913;-83
2022/01/12 14:49:33;;;;;;;;;;;5.50;81.80;;;;;;5018169;28;19917;-82
2022/01/12 14:51:59;;;;;;;;;;;5.50;82.00;;;;;;5038949;28;19948;-80
2022/01/12 14:54:24;;;;;;;;;;;5.50;81.60;;;;;;5029266;28;20162;-79
2022/01/12 14:56:50;;;;;;;;;;;5.50;81.40;;;;;;5014920;28;19952;-82
2022/01/12 14:59:15;;;;;;;;;;;5.50;81.50;;;;;;5012508;28;20382;-80
2022/01/12 15:01:41;;;;;;;;;;;5.50;81.50;;;;;;5014733;28;19919;-82
2022/01/12 15:04:07;;;;;;;;;;;5.40;81.70;;;;;;5035312;28;19917;-80
2022/01/12 15:06:33;;;;;;;;;;;5.50;81.50;;;;;;5017788;28;19996;-82
2022/01/12 15:08:58;;;;;;;;;;;5.40;82.00;;;;;;5026207;28;20378;-82
2022/01/12 15:11:23;;;;;;;;;;;5.40;81.90;;;;;;5020883;28;19966;-82
2022/01/12 15:13:57;;;;;;;;;;;5.30;82.20;;;;;;5024029;28;19958;-83
2022/01/12 15:16:23;;;;;;;;;;;5.30;82.20;;;;;;5010598;28;20290;-82
2022/01/12 15:18:49;;;;;;;;;;;5.40;81.70;;;;;;5017400;28;19913;-82
2022/01/12 15:21:16;;;;;;;;;;;5.40;81.30;;;;;;5034486;28;19909;-80
2022/01/12 15:23:42;;;;;;;;;;;5.30;81.60;;;;;;5026908;28;19917;-83
2022/01/12 15:26:07;;;;;;;;;;;5.10;82.10;;;;;;5027577;28;19949;-82
2022/01/12 15:28:33;;;;;;;;;;;5.10;82.30;;;;;;5002248;28;20356;-81
2022/01/12 15:30:58;;;;;;;;;;;5.10;82.70;;;;;;5032753;28;19955;-82
2022/01/12 15:33:23;;;;;;;;;;;5.10;82.80;;;;;;5032310;28;19987;-82
2022/01/12 15:35:49;;;;;;;;;;;5.10;82.60;;;;;;5054965;28;20426;-82
2022/01/12 15:38:15;;;;;;;;;;;5.10;82.60;;;;;;5017027;28;19920;-80
2022/01/12 15:40:41;;;;;;;;;;;5.10;82.70;;;;;;5027086;28;19913;-81
2022/01/12 15:43:07;;;;;;;;;;;5.20;82.20;;;;;;5010481;28;19924;-82
2022/01/12 15:45:32;;;;;;;;;;;5.10;82.00;;;;;;5030364;28;19979;-82
2022/01/12 15:47:58;;;;;;;;;;;5.30;81.80;;;;;;5032865;28;19999;-82
2022/01/12 15:50:24;;;;;;;;;;;5.20;82.20;;;;;;5031720;28;19920;-83
2022/01/12 15:52:50;;;;;;;;;;;5.20;82.10;;;;;;5035998;28;19982;-82
2022/01/12 15:55:15;;;;;;;;;;;5.30;82.00;;;;;;5022666;28;19979;-83